Time;durP1;ratioP1;P1;durP2;ratioP2;P2;SDS_P1;SDS_P2;PMS_P1;PMS_P2;Temp;Humidity;BMP_temperature;BMP_pressure;BME280_temperature;BME280_humidity;BME280_pressure;Samples;Min_cycle;Max_cycle;Signal;HPM_P1;HPM_P2
2023/09/17 03:00:47;;;;;;;2.42;2.22;;;22.80;55.60;;;;;;6054105;22;46301;-85
2023/09/17 03:03:15;;;;;;;1.73;1.58;;;22.90;55.60;;;;;;4964885;28;55916;-83
2023/09/17 03:05:47;;;;;;;2.08;1.88;;;22.80;55.60;;;;;;4969919;28;45063;-86
2023/09/17 03:08:13;;;;;;;3.00;2.10;;;22.90;55.70;;;;;;4987317;28;45532;-83
2023/09/17 03:10:42;;;;;;;2.47;2.28;;;22.90;55.70;;;;;;4983554;28;45533;-82
2023/09/17 03:13:10;;;;;;;2.30;2.10;;;22.80;55.60;;;;;;4955657;28;46067;-83
2023/09/17 03:15:35;;;;;;;2.15;1.95;;;22.80;55.60;;;;;;4951716;28;44956;-85
2023/09/17 03:18:02;;;;;;;2.35;2.15;;;22.90;55.70;;;;;;4954003;28;45229;-86
2023/09/17 03:20:33;;;;;;;2.22;2.03;;;22.90;55.70;;;;;;4938333;28;45911;-83
2023/09/17 03:23:02;;;;;;;3.40;2.38;;;22.90;55.70;;;;;;4944974;28;46784;-83
2023/09/17 03:25:29;;;;;;;2.28;1.92;;;22.90;55.70;;;;;;4953210;28;45473;-83
2023/09/17 03:27:56;;;;;;;2.78;2.25;;;22.90;55.70;;;;;;4955429;28;45412;-84
2023/09/17 03:30:22;;;;;;;3.10;2.10;;;22.90;55.70;;;;;;4965441;28;46386;-84
2023/09/17 03:32:47;;;;;;;2.67;2.33;;;22.90;55.70;;;;;;4967894;28;45406;-83
2023/09/17 03:35:13;;;;;;;2.90;2.38;;;22.80;55.60;;;;;;4929342;28;45299;-85
2023/09/17 03:37:39;;;;;;;2.55;2.03;;;22.80;55.60;;;;;;4949347;28;45864;-85
2023/09/17 03:40:10;;;;;;;2.53;1.98;;;22.80;55.60;;;;;;4936862;28;45442;-85
2023/09/17 03:42:36;;;;;;;2.00;1.80;;;22.90;55.70;;;;;;4945730;28;45576;-83
2023/09/17 03:45:09;;;;;;;2.78;2.25;;;22.90;55.70;;;;;;4964157;28;45709;-84
2023/09/17 03:47:36;;;;;;;4.82;2.40;;;22.80;55.60;;;;;;4943731;28;45279;-83
2023/09/17 03:50:06;;;;;;;1.98;1.77;;;22.80;55.60;;;;;;4961524;28;44773;-88
2023/09/17 03:52:37;;;;;;;3.63;1.98;;;22.80;55.60;;;;;;4962597;28;46522;-83
2023/09/17 03:55:09;;;;;;;2.58;2.15;;;22.80;55.60;;;;;;4984186;28;45228;-86
2023/09/17 03:57:35;;;;;;;;;;;22.80;55.60;;;;;;4958621;28;45433;-81
2023/09/17 04:00:13;;;;;;;3.22;2.08;;;22.80;55.70;;;;;;4951530;28;45952;-85
2023/09/17 04:02:39;;;;;;;2.97;2.05;;;22.80;55.70;;;;;;4916154;28;46838;-83
2023/09/17 04:05:10;;;;;;;4.45;2.10;;;22.80;55.70;;;;;;4948472;28;45647;-86
2023/09/17 04:07:43;;;;;;;3.25;2.55;;;22.80;55.70;;;;;;4948562;28;45604;-84
2023/09/17 04:10:10;;;;;;;2.38;2.15;;;22.80;55.70;;;;;;4949119;28;45349;-85
2023/09/17 04:12:36;;;;;;;2.30;2.10;;;22.80;55.70;;;;;;4953232;28;45788;-84
2023/09/17 04:15:19;;;;;;;2.38;2.17;;;22.80;55.60;;;;;;4953354;28;45199;-83
2023/09/17 04:17:51;;;;;;;2.67;2.33;;;22.90;55.70;;;;;;4951218;28;45071;-84
2023/09/17 04:20:18;;;;;;;2.70;2.13;;;22.80;55.70;;;;;;4967132;28;45143;-83
2023/09/17 04:22:46;;;;;;;2.40;2.13;;;22.80;55.70;;;;;;4951120;28;45929;-83
2023/09/17 04:25:16;;;;;;;2.80;2.50;;;22.80;55.70;;;;;;4957170;28;45836;-84
2023/09/17 04:27:44;;;;;;;2.50;2.30;;;22.80;55.70;;;;;;4969982;28;45329;-84
2023/09/17 04:30:11;;;;;;;2.33;2.03;;;22.80;55.70;;;;;;4958415;28;44934;-84
2023/09/17 04:32:37;;;;;;;2.40;2.20;;;22.80;55.70;;;;;;4951109;28;46370;-82
2023/09/17 04:35:08;;;;;;;3.55;2.35;;;22.80;55.70;;;;;;4953731;28;45767;-87
2023/09/17 04:37:35;;;;;;;2.47;2.20;;;22.80;55.70;;;;;;4940460;28;46272;-83
2023/09/17 04:40:11;;;;;;;3.83;2.20;;;22.80;55.70;;;;;;4971224;28;45002;-85
2023/09/17 04:42:40;;;;;;;3.53;2.28;;;22.80;55.70;;;;;;4965940;28;45720;-84
2023/09/17 04:45:08;;;;;;;2.47;1.98;;;22.80;55.70;;;;;;4970259;28;45065;-86
2023/09/17 04:47:36;;;;;;;4.30;2.15;;;22.80;55.70;;;;;;4954358;28;45618;-84
2023/09/17 04:50:09;;;;;;;2.83;2.20;;;22.80;55.70;;;;;;4944745;28;45350;-84
2023/09/17 04:52:36;;;;;;;3.10;2.33;;;22.80;55.70;;;;;;4967895;28;45727;-84
2023/09/17 04:55:04;;;;;;;2.63;2.28;;;22.80;55.70;;;;;;4964671;28;46289;-83
2023/09/17 04:57:30;;;;;;;2.78;2.15;;;22.80;55.70;;;;;;4952337;28;45542;-83
2023/09/17 04:59:56;;;;;;;2.45;2.20;;;22.80;55.70;;;;;;4970045;28;45819;-83
2023/09/17 05:02:22;;;;;;;2.67;2.05;;;22.80;55.70;;;;;;4960034;28;46357;-84
2023/09/17 05:04:48;;;;;;;2.72;2.13;;;22.80;55.70;;;;;;4966655;28;45388;-84
2023/09/17 05:07:14;;;;;;;2.30;2.10;;;22.80;55.70;;;;;;4965665;28;44755;-84
2023/09/17 05:09:40;;;;;;;1.92;1.73;;;22.80;55.70;;;;;;4970878;28;45632;-83
2023/09/17 05:12:08;;;;;;;2.90;2.28;;;22.80;55.70;;;;;;4978866;28;46310;-85
2023/09/17 05:14:35;;;;;;;2.40;2.20;;;22.80;55.70;;;;;;4966172;28;45360;-87
2023/09/17 05:17:02;;;;;;;2.35;2.15;;;22.80;55.80;;;;;;4963875;28;45784;-82
2023/09/17 05:19:28;;;;;;;3.95;1.92;;;22.80;55.70;;;;;;4940693;28;45240;-84
2023/09/17 05:21:54;;;;;;;2.85;2.20;;;22.80;55.70;;;;;;4966693;28;46194;-83
2023/09/17 05:24:21;;;;;;;3.25;2.28;;;22.80;55.70;;;;;;4934441;28;45409;-83
2023/09/17 05:26:48;;;;;;;2.58;2.13;;;22.80;55.70;;;;;;4965701;28;45615;-84
2023/09/17 05:29:16;;;;;;;2.80;2.40;;;22.80;55.70;;;;;;4971979;28;45384;-83
2023/09/17 05:31:42;;;;;;;2.53;2.30;;;22.80;55.70;;;;;;4946044;28;45453;-84
2023/09/17 05:34:08;;;;;;;4.22;2.60;;;22.80;55.80;;;;;;4972508;28;45636;-85
2023/09/17 05:36:34;;;;;;;6.20;2.47;;;22.80;55.70;;;;;;4938774;28;45444;-83
2023/09/17 05:39:00;;;;;;;4.20;2.65;;;22.80;55.80;;;;;;4951117;28;46352;-83
2023/09/17 05:41:26;;;;;;;3.88;2.40;;;22.80;55.70;;;;;;4949571;28;46430;-83
2023/09/17 05:43:52;;;;;;;2.70;2.30;;;22.80;55.70;;;;;;4967072;28;45290;-84
2023/09/17 05:46:17;;;;;;;3.90;2.78;;;22.80;55.70;;;;;;4952244;28;45922;-85
2023/09/17 05:48:44;;;;;;;3.45;2.70;;;22.80;55.80;;;;;;4937358;28;45268;-83
2023/09/17 05:51:10;;;;;;;3.90;2.63;;;22.80;55.70;;;;;;4948601;28;46087;-83
2023/09/17 05:53:36;;;;;;;5.38;2.55;;;22.80;55.70;;;;;;4966466;28;45785;-84
2023/09/17 05:56:04;;;;;;;3.92;2.67;;;22.80;55.70;;;;;;4961238;28;45371;-83
2023/09/17 05:58:30;;;;;;;4.20;2.92;;;22.80;55.70;;;;;;4946767;28;44806;-83
2023/09/17 06:00:56;;;;;;;2.95;2.60;;;22.80;55.70;;;;;;4943966;28;47207;-84
2023/09/17 06:03:22;;;;;;;3.00;2.67;;;22.80;56.30;;;;;;4951997;28;45129;-84
2023/09/17 06:05:49;;;;;;;3.40;2.72;;;22.80;55.70;;;;;;4983383;28;45401;-85
2023/09/17 06:08:15;;;;;;;4.65;2.97;;;22.80;55.70;;;;;;4984896;28;44779;-83
2023/09/17 06:10:41;;;;;;;3.33;2.47;;;22.80;55.70;;;;;;4935159;28;45673;-83
2023/09/17 06:13:10;;;;;;;4.75;3.10;;;22.80;55.70;;;;;;4969774;28;45282;-83
2023/09/17 06:15:36;;;;;;;3.78;2.70;;;22.80;55.70;;;;;;4948855;28;45707;-85
2023/09/17 06:18:02;;;;;;;3.50;2.80;;;22.80;55.70;;;;;;4968905;28;45595;-83
2023/09/17 06:20:28;;;;;;;4.63;2.72;;;22.80;55.80;;;;;;4972490;28;45703;-84
2023/09/17 06:22:54;;;;;;;2.90;2.60;;;22.80;55.70;;;;;;4944343;28;45314;-84
2023/09/17 06:25:23;;;;;;;3.40;2.72;;;22.80;55.70;;;;;;4927386;28;45468;-83
2023/09/17 06:27:49;;;;;;;3.65;2.70;;;22.80;55.70;;;;;;4955546;28;45646;-84
2023/09/17 06:30:24;;;;;;;3.13;2.80;;;22.80;55.80;;;;;;4946512;28;46314;-83
2023/09/17 06:32:51;;;;;;;4.75;2.92;;;22.80;55.70;;;;;;4970649;28;44913;-83
2023/09/17 06:35:16;;;;;;;2.85;2.22;;;22.80;55.70;;;;;;4936911;28;45302;-84
2023/09/17 06:37:43;;;;;;;3.03;2.50;;;22.80;55.70;;;;;;4939516;28;47007;-83
2023/09/17 06:40:10;;;;;;;3.08;2.63;;;22.80;55.70;;;;;;4976101;28;45269;-86
2023/09/17 06:42:37;;;;;;;3.58;2.70;;;22.80;55.80;;;;;;4939830;28;45760;-84
2023/09/17 06:45:11;;;;;;;3.80;2.83;;;22.80;55.70;;;;;;4938964;28;45850;-86
2023/09/17 06:47:37;;;;;;;2.58;2.28;;;22.80;55.70;;;;;;4943058;28;45287;-83
2023/09/17 06:50:03;;;;;;;2.65;2.35;;;22.80;55.80;;;;;;4954702;28;45841;-84
2023/09/17 06:52:29;;;;;;;3.30;2.60;;;22.80;55.80;;;;;;4942755;28;44997;-86
2023/09/17 06:54:55;;;;;;;2.58;2.20;;;22.80;55.70;;;;;;4962337;28;45787;-84
2023/09/17 06:57:21;;;;;;;3.53;2.60;;;22.80;55.80;;;;;;4969716;28;45736;-83
2023/09/17 06:59:47;;;;;;;3.38;2.53;;;22.80;55.80;;;;;;4968314;28;46021;-84
2023/09/17 07:02:15;;;;;;;2.75;2.35;;;22.80;55.80;;;;;;4968401;28;46237;-83
2023/09/17 07:04:43;;;;;;;4.07;2.63;;;22.80;55.80;;;;;;4951710;28;45796;-84
2023/09/17 07:07:08;;;;;;;2.65;2.35;;;22.80;55.80;;;;;;4970240;28;45276;-84
2023/09/17 07:09:34;;;;;;;2.45;2.25;;;22.80;55.70;;;;;;4974964;28;45553;-84
2023/09/17 07:12:00;;;;;;;3.35;2.70;;;22.80;55.70;;;;;;4968243;28;45688;-84
2023/09/17 07:14:26;;;;;;;3.10;2.63;;;22.80;55.80;;;;;;4964033;28;45553;-84
2023/09/17 07:16:52;;;;;;;3.00;2.45;;;22.80;55.80;;;;;;4962515;28;45368;-85
2023/09/17 07:19:18;;;;;;;2.78;2.45;;;22.80;55.80;;;;;;4989647;28;45834;-84
2023/09/17 07:21:44;;;;;;;2.58;2.25;;;22.80;55.80;;;;;;4968936;28;45337;-83
2023/09/17 07:24:11;;;;;;;2.42;2.22;;;22.80;55.80;;;;;;4972559;28;46333;-84
2023/09/17 07:26:37;;;;;;;2.60;2.40;;;22.80;55.80;;;;;;4982060;28;45262;-84
2023/09/17 07:29:04;;;;;;;2.33;2.13;;;22.80;55.80;;;;;;4987793;28;45632;-84
2023/09/17 07:31:30;;;;;;;3.80;2.33;;;22.80;55.80;;;;;;4910918;23;45952;-51
2023/09/17 07:33:56;;;;;;;2.45;2.25;;;22.80;55.80;;;;;;4919340;28;46741;-48
2023/09/17 07:36:21;;;;;;;3.22;2.15;;;22.80;55.80;;;;;;4903966;28;45664;-51
2023/09/17 07:38:47;;;;;;;3.22;2.40;;;22.80;55.80;;;;;;4919890;28;45921;-47
2023/09/17 07:41:13;;;;;;;3.70;2.35;;;22.80;55.80;;;;;;4924229;28;47275;-50
2023/09/17 07:43:38;;;;;;;2.20;2.00;;;22.80;55.80;;;;;;4929878;28;45424;-48
2023/09/17 07:46:05;;;;;;;2.63;2.42;;;22.80;55.70;;;;;;4901310;28;45668;-49
2023/09/17 07:48:31;;;;;;;2.45;2.22;;;22.80;55.70;;;;;;4923684;28;45778;-50
2023/09/17 07:50:57;;;;;;;4.18;2.63;;;22.80;55.80;;;;;;4913021;28;45534;-51
2023/09/17 07:53:24;;;;;;;2.50;2.20;;;22.80;55.70;;;;;;4930433;28;44944;-47
2023/09/17 07:55:49;;;;;;;2.40;2.20;;;22.80;55.80;;;;;;4913122;28;45262;-48
2023/09/17 07:58:15;;;;;;;2.72;2.40;;;22.80;55.70;;;;;;4920462;28;45916;-48
2023/09/17 08:00:45;;;;;;;3.03;2.45;;;22.80;55.70;;;;;;4905562;28;45878;-51
2023/09/17 08:03:14;;;;;;;2.97;2.35;;;22.80;55.70;;;;;;4903333;28;44772;-48
2023/09/17 08:05:41;;;;;;;2.67;2.47;;;22.80;55.70;;;;;;4916282;28;44813;-49
2023/09/17 08:08:07;;;;;;;2.78;2.20;;;22.80;55.70;;;;;;4925258;28;45797;-50
2023/09/17 08:10:33;;;;;;;3.70;2.13;;;22.80;55.80;;;;;;4919657;28;44761;-48
2023/09/17 08:12:58;;;;;;;5.13;2.50;;;22.80;55.70;;;;;;4918367;28;45198;-50
2023/09/17 08:15:24;;;;;;;2.53;2.33;;;22.80;55.70;;;;;;4898449;28;45221;-51
2023/09/17 08:17:51;;;;;;;2.42;2.17;;;22.80;55.80;;;;;;4915502;28;46432;-51
2023/09/17 08:20:19;;;;;;;5.00;2.75;;;22.80;55.70;;;;;;4916139;28;45220;-49
2023/09/17 08:22:45;;;;;;;3.33;2.20;;;22.80;55.80;;;;;;4927227;28;46400;-50
2023/09/17 08:25:11;;;;;;;3.25;2.20;;;22.80;55.70;;;;;;4918181;28;45325;-48
2023/09/17 08:27:37;;;;;;;2.42;2.20;;;22.80;55.70;;;;;;4922605;28;47390;-50
2023/09/17 08:30:11;;;;;;;2.33;2.10;;;22.80;55.70;;;;;;4873586;28;46430;-52
2023/09/17 08:32:40;;;;;;;2.85;2.30;;;22.80;55.80;;;;;;4900216;28;46405;-49
2023/09/17 08:35:07;;;;;;;2.67;2.25;;;22.80;56.30;;;;;;4911688;28;45258;-53
2023/09/17 08:37:37;;;;;;;2.55;2.35;;;22.80;55.80;;;;;;4892786;28;45986;-48
2023/09/17 08:40:09;;;;;;;2.88;2.47;;;22.80;55.80;;;;;;4911836;28;45361;-50
2023/09/17 08:42:35;;;;;;;2.53;2.08;;;22.80;55.70;;;;;;4891433;28;45390;-48
2023/09/17 08:45:01;;;;;;;3.22;2.20;;;22.80;55.80;;;;;;4889941;28;46422;-50
2023/09/17 08:47:26;;;;;;;2.83;2.47;;;22.80;55.80;;;;;;4865988;28;46161;-51
2023/09/17 08:49:52;;;;;;;3.22;2.50;;;22.80;55.80;;;;;;4885384;28;47085;-49
2023/09/17 08:52:18;;;;;;;2.97;2.50;;;22.80;55.80;;;;;;4893120;28;45614;-51
2023/09/17 08:54:43;;;;;;;2.35;2.15;;;22.80;55.80;;;;;;4918094;28;46019;-53
2023/09/17 08:57:10;;;;;;;2.80;2.17;;;22.80;55.80;;;;;;4871469;28;46443;-52
2023/09/17 08:59:41;;;;;;;2.20;1.98;;;22.80;55.80;;;;;;4919491;28;45431;-49
2023/09/17 09:02:15;;;;;;;3.47;2.15;;;22.80;55.80;;;;;;4884292;28;46775;-48
2023/09/17 09:04:40;;;;;;;2.33;1.98;;;22.80;55.80;;;;;;4927412;28;45795;-49
2023/09/17 09:07:06;;;;;;;2.38;2.17;;;22.80;55.80;;;;;;4914633;28;45559;-50
2023/09/17 09:09:31;;;;;;;2.22;2.03;;;22.80;55.80;;;;;;4919444;28;46296;-50
2023/09/17 09:11:57;;;;;;;2.33;2.10;;;22.80;55.80;;;;;;4875306;28;47014;-50
2023/09/17 09:14:22;;;;;;;2.00;1.80;;;22.80;55.80;;;;;;4916601;28;45873;-50
2023/09/17 09:16:49;;;;;;;2.17;1.98;;;22.80;55.80;;;;;;4869591;28;46597;-49
2023/09/17 09:19:14;;;;;;;2.72;2.20;;;22.80;55.80;;;;;;4896531;28;45155;-52
2023/09/17 09:21:40;;;;;;;2.38;2.05;;;22.80;55.80;;;;;;4890938;28;47055;-49
2023/09/17 09:24:06;;;;;;;2.47;2.28;;;22.80;55.80;;;;;;4876383;28;45681;-51
2023/09/17 09:26:33;;;;;;;2.70;2.28;;;22.80;55.80;;;;;;4892459;28;46695;-51
2023/09/17 09:28:59;;;;;;;2.65;1.88;;;22.80;55.80;;;;;;4914717;28;45601;-49
2023/09/17 09:31:26;;;;;;;2.50;2.30;;;22.80;55.80;;;;;;4881251;28;45679;-48
2023/09/17 09:33:52;;;;;;;2.60;2.35;;;22.80;55.80;;;;;;4894628;28;46422;-52
2023/09/17 09:36:19;;;;;;;4.35;2.63;;;22.80;55.80;;;;;;4879140;28;48013;-50
2023/09/17 09:38:45;;;;;;;2.28;1.98;;;22.80;55.80;;;;;;4895424;28;45288;-51
2023/09/17 09:41:10;;;;;;;2.42;2.22;;;22.80;55.80;;;;;;4907760;28;45605;-51
2023/09/17 09:43:36;;;;;;;2.17;1.98;;;22.80;55.80;;;;;;4946569;28;45576;-48
2023/09/17 09:46:04;;;;;;;2.83;2.20;;;22.80;55.80;;;;;;4927538;28;45854;-48
2023/09/17 09:48:38;;;;;;;2.15;1.95;;;22.80;55.80;;;;;;4946754;28;45665;-50
2023/09/17 09:51:04;;;;;;;2.65;2.13;;;22.80;55.80;;;;;;4919393;28;46142;-47
2023/09/17 09:53:30;;;;;;;2.70;2.50;;;22.80;55.80;;;;;;4949903;28;45643;-49
2023/09/17 09:55:56;;;;;;;2.17;1.98;;;22.80;55.80;;;;;;4942484;28;45882;-50
2023/09/17 09:58:21;;;;;;;2.28;2.08;;;22.80;55.80;;;;;;4938941;28;45236;-48
2023/09/17 10:00:47;;;;;;;4.07;2.28;;;22.90;55.90;;;;;;4875630;28;45821;-48
2023/09/17 10:03:13;;;;;;;2.95;2.35;;;22.80;55.80;;;;;;4930736;28;45657;-49
2023/09/17 10:05:42;;;;;;;2.33;2.13;;;22.80;55.80;;;;;;4916993;28;45826;-52
2023/09/17 10:08:12;;;;;;;2.78;2.38;;;22.80;55.80;;;;;;4938566;28;46001;-49
2023/09/17 10:10:38;;;;;;;2.40;2.20;;;22.80;55.80;;;;;;4912779;28;45490;-49
2023/09/17 10:13:06;;;;;;;2.30;2.10;;;22.90;55.90;;;;;;4941385;28;46040;-47
2023/09/17 10:15:32;;;;;;;2.17;1.98;;;22.90;55.90;;;;;;4926857;28;45568;-50
2023/09/17 10:17:58;;;;;;;2.20;2.00;;;22.90;55.90;;;;;;4936567;28;45690;-50
2023/09/17 10:20:23;;;;;;;2.20;2.00;;;22.80;55.80;;;;;;4912931;28;45255;-50
2023/09/17 10:22:49;;;;;;;2.30;1.95;;;22.90;55.90;;;;;;4923927;28;44852;-49
2023/09/17 10:25:16;;;;;;;2.10;1.90;;;22.90;55.90;;;;;;4894791;28;45663;-51
2023/09/17 10:27:42;;;;;;;2.78;2.20;;;22.90;55.90;;;;;;4930401;28;45355;-49
2023/09/17 10:30:12;;;;;;;2.30;2.10;;;22.90;55.90;;;;;;4912994;28;45907;-50
2023/09/17 10:32:38;;;;;;;2.47;1.98;;;22.90;55.90;;;;;;4938594;28;45711;-48
2023/09/17 10:35:06;;;;;;;2.50;2.30;;;22.90;55.90;;;;;;4953836;28;47366;-52
2023/09/17 10:37:32;;;;;;;2.28;2.03;;;22.90;55.90;;;;;;4910209;28;46421;-48
2023/09/17 10:39:58;;;;;;;2.88;2.35;;;22.90;55.90;;;;;;4948906;28;45350;-50
2023/09/17 10:42:25;;;;;;;2.30;2.03;;;22.90;56.00;;;;;;4918666;28;45775;-48
2023/09/17 10:44:53;;;;;;;2.38;2.17;;;22.90;55.90;;;;;;4963768;28;46320;-48
2023/09/17 10:47:19;;;;;;;2.35;2.15;;;22.90;55.90;;;;;;4925260;28;45421;-50
2023/09/17 10:49:44;;;;;;;2.65;2.28;;;22.90;56.10;;;;;;4947677;28;45826;-48
2023/09/17 10:52:11;;;;;;;1.83;1.73;;;22.90;55.90;;;;;;4946031;23;46067;-48
2023/09/17 10:54:36;;;;;;;2.40;2.20;;;22.90;55.90;;;;;;4949341;28;46656;-49
2023/09/17 10:57:38;;;;;;;2.80;2.22;;;22.90;55.90;;;;;;4931819;28;46180;-48
2023/09/17 11:00:13;;;;;;;2.22;2.03;;;22.90;55.90;;;;;;4953917;28;45619;-48
2023/09/17 11:02:41;;;;;;;2.25;2.05;;;22.90;56.00;;;;;;4953088;28;45829;-50
2023/09/17 11:05:07;;;;;;;3.90;2.25;;;22.90;56.00;;;;;;4953550;28;45715;-50
2023/09/17 11:07:33;;;;;;;2.40;2.20;;;22.90;55.90;;;;;;4960092;28;45627;-49
2023/09/17 11:10:01;;;;;;;2.78;2.28;;;22.90;55.90;;;;;;4948053;28;45476;-49
2023/09/17 11:12:27;;;;;;;2.20;2.00;;;22.90;55.90;;;;;;4932170;28;45100;-48
2023/09/17 11:14:52;;;;;;;2.20;2.00;;;22.90;56.50;;;;;;4959338;28;45673;-51
2023/09/17 11:17:18;;;;;;;2.88;2.10;;;22.90;55.90;;;;;;4904845;28;46024;-50
2023/09/17 11:19:44;;;;;;;2.10;1.90;;;22.90;56.00;;;;;;4950946;28;44950;-51
2023/09/17 11:22:11;;;;;;;2.67;2.25;;;22.90;56.00;;;;;;4949085;28;45428;-50
2023/09/17 11:24:37;;;;;;;2.97;2.35;;;23.00;56.00;;;;;;4944227;28;46418;-49
2023/09/17 11:27:04;;;;;;;2.20;2.00;;;23.00;56.00;;;;;;4947981;28;45280;-51
2023/09/17 11:29:40;;;;;;;2.25;1.88;;;23.00;56.00;;;;;;4940254;28;45750;-48
2023/09/17 11:32:06;;;;;;;2.50;2.15;;;23.00;56.10;;;;;;4924208;28;45354;-51
2023/09/17 11:34:34;;;;;;;2.45;2.25;;;23.00;56.10;;;;;;4962949;28;45711;-51
2023/09/17 11:36:59;;;;;;;2.55;2.30;;;23.00;56.00;;;;;;4938656;28;45469;-49
2023/09/17 11:39:25;;;;;;;2.60;2.22;;;23.00;56.10;;;;;;4960089;28;45478;-49
2023/09/17 11:42:02;;;;;;;2.35;2.15;;;23.00;56.00;;;;;;4940012;28;46340;-53
2023/09/17 11:44:30;;;;;;;2.13;1.92;;;23.00;56.10;;;;;;4933424;28;45906;-48
2023/09/17 11:46:56;;;;;;;2.53;2.30;;;23.00;56.00;;;;;;4942673;28;46202;-51
2023/09/17 11:49:22;;;;;;;2.30;1.92;;;23.00;56.00;;;;;;4939196;28;46207;-51
2023/09/17 11:51:48;;;;;;;2.20;2.00;;;23.00;56.00;;;;;;4952685;28;45918;-49
2023/09/17 11:54:18;;;;;;;2.30;2.10;;;23.00;56.10;;;;;;4946454;28;46044;-49
2023/09/17 11:56:46;;;;;;;3.03;1.98;;;23.00;56.10;;;;;;4947974;28;45142;-51
2023/09/17 11:59:15;;;;;;;2.72;2.15;;;23.00;56.10;;;;;;4952229;28;46342;-50
2023/09/17 12:01:45;;;;;;;2.08;1.85;;;23.00;56.10;;;;;;4920922;28;45688;-48
2023/09/17 12:04:11;;;;;;;2.22;2.03;;;23.00;56.10;;;;;;4933859;28;45392;-50
2023/09/17 12:06:39;;;;;;;2.30;2.10;;;23.00;56.10;;;;;;4920683;28;46623;-50
2023/09/17 12:10:03;;;;;;;1.95;1.75;;;23.00;56.10;;;;;;4894214;28;46286;-50
2023/09/17 12:12:33;;;;;;;2.17;1.98;;;23.00;56.10;;;;;;4937992;28;45670;-52
2023/09/17 12:14:59;;;;;;;1.90;1.80;;;23.00;56.10;;;;;;4940628;28;46770;-50
2023/09/17 12:17:24;;;;;;;1.88;1.75;;;23.00;56.20;;;;;;4932806;28;45770;-52
2023/09/17 12:20:33;;;;;;;2.38;2.17;;;23.00;56.10;;;;;;4920365;28;45859;-48
2023/09/17 12:26:08;;;;;;;1.85;1.75;;;23.00;56.20;;;;;;4902517;28;46589;-46
2023/09/17 12:28:33;;;;;;;2.38;2.17;;;23.00;56.20;;;;;;4944765;28;45437;-50
2023/09/17 12:30:59;;;;;;;2.47;2.13;;;23.00;56.20;;;;;;4934383;28;45467;-47
2023/09/17 12:33:24;;;;;;;2.17;1.98;;;23.00;56.20;;;;;;4921500;28;46617;-48
2023/09/17 12:35:51;;;;;;;2.10;1.90;;;23.00;56.10;;;;;;4915098;28;45724;-50
2023/09/17 12:38:16;;;;;;;2.20;2.00;;;23.00;56.20;;;;;;4946532;28;45283;-47
2023/09/17 12:40:42;;;;;;;2.33;2.13;;;23.00;56.20;;;;;;4933766;28;45886;-48
2023/09/17 12:43:08;;;;;;;2.22;2.00;;;23.00;56.20;;;;;;4959703;28;45814;-48
2023/09/17 12:45:35;;;;;;;2.33;2.13;;;23.00;56.20;;;;;;4937520;28;46651;-48
2023/09/17 12:48:00;;;;;;;2.00;1.80;;;23.00;56.20;;;;;;4940456;28;45337;-49
2023/09/17 12:50:29;;;;;;;1.73;1.63;;;23.00;56.20;;;;;;4941088;28;45850;-48
2023/09/17 12:52:55;;;;;;;2.10;1.90;;;23.00;56.20;;;;;;4941687;28;45339;-48
2023/09/17 12:55:21;;;;;;;2.50;2.30;;;23.00;56.20;;;;;;4933342;28;45451;-49
2023/09/17 12:57:49;;;;;;;2.22;2.03;;;23.00;56.80;;;;;;4957953;28;45795;-51
2023/09/17 13:00:15;;;;;;;2.17;1.98;;;23.00;56.30;;;;;;4931988;28;45363;-48
2023/09/17 13:02:40;;;;;;;1.75;1.65;;;23.00;56.20;;;;;;4914223;28;45695;-49
2023/09/17 13:05:18;;;;;;;2.53;2.33;;;23.00;56.20;;;;;;4951207;28;46444;-51
2023/09/17 13:07:44;;;;;;;2.35;2.00;;;23.00;56.30;;;;;;4928483;28;45499;-49
2023/09/17 13:10:10;;;;;;;1.80;1.70;;;23.00;56.30;;;;;;4928697;28;45354;-47
2023/09/17 13:12:35;;;;;;;2.38;2.17;;;23.00;56.30;;;;;;4933286;28;47165;-49
2023/09/17 13:15:03;;;;;;;1.98;1.83;;;23.00;56.30;;;;;;4948570;28;46404;-49
2023/09/17 13:17:35;;;;;;;1.92;1.83;;;23.00;56.30;;;;;;4908178;28;45523;-47
2023/09/17 13:20:01;;;;;;;2.40;2.20;;;23.00;56.30;;;;;;4953781;28;46530;-48
2023/09/17 13:22:27;;;;;;;2.15;1.95;;;23.00;56.30;;;;;;4893753;28;46027;-47
2023/09/17 13:24:53;;;;;;;2.25;1.90;;;23.00;56.30;;;;;;4957709;28;45735;-48
2023/09/17 13:27:18;;;;;;;2.40;2.08;;;23.00;56.30;;;;;;4941194;28;45561;-49
2023/09/17 13:29:47;;;;;;;2.38;1.85;;;23.00;56.30;;;;;;4954376;28;45292;-49
2023/09/17 13:32:15;;;;;;;2.17;1.98;;;23.00;56.30;;;;;;4927037;28;45946;-50
2023/09/17 13:34:41;;;;;;;2.13;1.92;;;23.00;56.30;;;;;;4934787;28;46217;-47
2023/09/17 13:37:08;;;;;;;5.45;1.90;;;23.00;56.30;;;;;;4942627;28;45293;-49
2023/09/17 13:39:37;;;;;;;2.40;2.20;;;23.00;56.30;;;;;;4936328;28;45948;-48
2023/09/17 13:42:11;;;;;;;2.08;1.88;;;23.00;56.30;;;;;;4932210;28;45240;-53
2023/09/17 13:44:47;;;;;;;2.25;2.05;;;23.00;56.40;;;;;;4904971;28;45671;-47
2023/09/17 13:47:13;;;;;;;1.92;1.73;;;23.00;56.30;;;;;;4931601;28;45437;-50
2023/09/17 13:49:40;;;;;;;1.90;1.70;;;23.00;56.40;;;;;;4904735;28;45717;-50
2023/09/17 13:52:06;;;;;;;2.25;1.77;;;23.00;56.30;;;;;;4932628;28;45754;-49
2023/09/17 13:54:33;;;;;;;2.42;1.88;;;23.10;56.40;;;;;;4947129;28;46452;-48
2023/09/17 13:56:59;;;;;;;2.40;2.05;;;23.10;56.40;;;;;;4945827;28;45667;-50
2023/09/17 13:59:24;;;;;;;2.50;2.10;;;23.10;56.40;;;;;;4950402;28;45299;-48
2023/09/17 14:01:50;;;;;;;2.20;2.00;;;23.10;56.40;;;;;;4932721;28;46138;-47
2023/09/17 14:04:15;;;;;;;3.22;2.03;;;23.10;56.40;;;;;;4946926;28;46934;-49
2023/09/17 14:06:41;;;;;;;3.35;1.70;;;23.10;56.50;;;;;;4931491;28;46540;-47
2023/09/17 14:09:07;;;;;;;3.25;1.98;;;23.10;56.40;;;;;;4944908;28;45531;-50
2023/09/17 14:11:32;;;;;;;2.63;2.10;;;23.10;56.50;;;;;;4937745;28;46120;-47
2023/09/17 14:13:58;;;;;;;2.38;2.13;;;23.10;56.40;;;;;;4952459;28;45494;-48
2023/09/17 14:16:23;;;;;;;4.05;1.70;;;23.10;56.40;;;;;;4931379;28;45882;-49
2023/09/17 14:18:49;;;;;;;2.13;1.92;;;23.10;56.40;;;;;;4949286;28;46381;-46
2023/09/17 14:21:15;;;;;;;2.30;1.60;;;23.10;57.00;;;;;;4935859;28;45897;-48
2023/09/17 14:23:41;;;;;;;2.22;2.00;;;23.10;56.40;;;;;;4932389;28;45543;-50
2023/09/17 14:26:07;;;;;;;2.10;1.90;;;23.10;56.40;;;;;;4948985;28;46446;-49
2023/09/17 14:28:32;;;;;;;1.90;1.70;;;23.10;56.50;;;;;;4951673;28;46083;-50
2023/09/17 14:30:58;;;;;;;3.92;1.98;;;23.10;56.40;;;;;;4935821;28;45309;-48
2023/09/17 14:33:24;;;;;;;1.95;1.75;;;23.10;56.50;;;;;;4934577;28;46344;-50
2023/09/17 14:35:49;;;;;;;2.10;1.90;;;23.10;56.50;;;;;;4944962;28;46397;-49
2023/09/17 14:38:15;;;;;;;2.15;1.77;;;23.10;56.40;;;;;;4955017;28;44705;-48
2023/09/17 14:40:41;;;;;;;1.60;1.50;;;23.10;56.40;;;;;;4943540;28;45388;-51
2023/09/17 14:43:06;;;;;;;1.90;1.80;;;23.10;56.40;;;;;;4956462;28;45710;-47
2023/09/17 14:45:32;;;;;;;2.22;1.75;;;23.10;56.50;;;;;;4939643;28;46306;-46
2023/09/17 14:47:57;;;;;;;1.95;1.83;;;23.10;56.40;;;;;;4949694;28;45786;-48
2023/09/17 14:50:23;;;;;;;2.83;2.10;;;23.10;56.40;;;;;;4935513;28;45582;-48
2023/09/17 14:52:49;;;;;;;1.90;1.70;;;23.10;56.50;;;;;;4960534;28;45647;-47
2023/09/17 14:55:14;;;;;;;1.77;1.63;;;23.20;56.50;;;;;;4942667;28;46151;-48
2023/09/17 14:57:41;;;;;;;2.63;1.88;;;23.10;56.50;;;;;;4945649;28;46420;-47
2023/09/17 15:00:09;;;;;;;2.45;1.95;;;23.20;56.50;;;;;;4944903;28;45307;-47
2023/09/17 15:02:35;;;;;;;2.35;1.90;;;23.20;56.50;;;;;;4925191;28;47060;-47
2023/09/17 15:05:00;;;;;;;1.85;1.70;;;23.20;56.50;;;;;;4956396;28;45347;-50
2023/09/17 15:07:26;;;;;;;2.00;1.50;;;23.20;56.50;;;;;;4946633;28;45850;-47
2023/09/17 15:09:52;;;;;;;2.28;2.05;;;23.10;56.50;;;;;;4954897;28;45825;-48
2023/09/17 15:12:18;;;;;;;1.73;1.63;;;23.20;56.50;;;;;;4950273;28;45348;-46
2023/09/17 15:14:43;;;;;;;1.63;1.52;;;23.20;56.50;;;;;;4955870;28;45286;-48
2023/09/17 15:17:10;;;;;;;2.08;1.63;;;23.20;56.50;;;;;;4935077;28;44967;-47
2023/09/17 15:19:36;;;;;;;1.92;1.73;;;23.20;56.50;;;;;;4939858;28;45740;-46
2023/09/17 15:22:03;;;;;;;2.30;1.80;;;23.20;56.50;;;;;;4946822;28;45499;-46
2023/09/17 15:24:29;;;;;;;2.53;1.77;;;23.20;56.50;;;;;;4952718;28;46013;-48
2023/09/17 15:26:54;;;;;;;2.15;1.95;;;23.20;56.50;;;;;;4945717;28;45416;-47
2023/09/17 15:29:20;;;;;;;1.73;1.63;;;23.20;56.60;;;;;;4932331;28;46303;-50
2023/09/17 15:31:45;;;;;;;2.50;2.00;;;23.20;56.60;;;;;;4926850;28;45182;-50
2023/09/17 15:34:12;;;;;;;1.70;1.60;;;23.20;56.60;;;;;;4951669;28;45359;-48
2023/09/17 15:36:41;;;;;;;3.50;1.80;;;23.20;56.50;;;;;;4937024;28;45208;-48
2023/09/17 15:39:06;;;;;;;2.03;1.55;;;23.20;56.50;;;;;;4935896;28;46017;-46
2023/09/17 15:41:32;;;;;;;1.50;1.40;;;23.20;56.60;;;;;;4924510;28;45614;-48
2023/09/17 15:43:58;;;;;;;1.90;1.80;;;23.20;56.50;;;;;;4944515;28;45397;-46
2023/09/17 15:46:23;;;;;;;1.80;1.70;;;23.20;56.60;;;;;;4940979;28;45604;-48
2023/09/17 15:48:49;;;;;;;1.63;1.52;;;23.20;56.60;;;;;;4957456;28;45679;-48
2023/09/17 15:51:15;;;;;;;2.00;1.80;;;23.20;56.50;;;;;;4927343;28;46416;-50